Time;durP1;ratioP1;P1;durP2;ratioP2;P2;SDS_P1;SDS_P2;PMS_P1;PMS_P2;Temp;Humidity;BMP_temperature;BMP_pressure;BME280_temperature;BME280_humidity;BME280_pressure;Samples;Min_cycle;Max_cycle;Signal;HPM_P1;HPM_P2
2024/02/12 00:02:44;;;;;;;10.32;6.43;;;23.60;57.10;;;;;;6148226;28;80240;-54
2024/02/12 00:05:46;;;;;;;9.77;6.05;;;23.70;57.10;;;;;;6152163;28;82305;-53
2024/02/12 00:08:47;;;;;;;8.38;5.78;;;23.70;57.70;;;;;;6146346;28;80379;-54
2024/02/12 00:11:48;;;;;;;9.38;6.70;;;23.70;57.00;;;;;;6152115;28;82268;-53
2024/02/12 00:14:48;;;;;;;9.80;6.00;;;23.60;57.10;;;;;;6153210;28;80352;-53
2024/02/12 00:17:49;;;;;;;10.65;6.20;;;23.70;56.90;;;;;;6152128;28;80286;-53
2024/02/12 00:20:49;;;;;;;9.10;6.30;;;23.70;56.80;;;;;;6152567;28;81026;-52
2024/02/12 00:23:50;;;;;;;9.48;6.10;;;23.70;56.70;;;;;;6152169;28;79927;-55
2024/02/12 00:26:51;;;;;;;9.63;6.68;;;23.70;56.80;;;;;;6151575;28;80210;-54
2024/02/12 00:29:51;;;;;;;9.00;6.20;;;23.70;56.70;;;;;;6151843;28;80899;-52
2024/02/12 00:32:54;;;;;;;10.63;6.88;;;23.70;57.10;;;;;;6146051;28;80446;-61
2024/02/12 00:35:55;;;;;;;11.05;6.93;;;23.70;56.50;;;;;;6151752;28;80776;-61
2024/02/12 00:38:55;;;;;;;9.88;6.68;;;23.70;56.50;;;;;;6151997;28;81525;-60
2024/02/12 00:41:57;;;;;;;11.90;7.03;;;23.70;56.50;;;;;;6150930;28;80527;-61
2024/02/12 00:44:57;;;;;;;9.02;6.53;;;23.70;56.60;;;;;;6150900;28;80161;-59
2024/02/12 00:47:58;;;;;;;10.70;7.25;;;23.70;56.70;;;;;;6136546;28;80825;-59
2024/02/12 00:50:58;;;;;;;8.40;5.78;;;23.70;56.40;;;;;;6151020;28;83212;-59
2024/02/12 00:53:59;;;;;;;8.55;6.03;;;23.70;56.60;;;;;;6153168;28;81073;-58
2024/02/12 00:57:00;;;;;;;9.73;6.18;;;23.70;56.50;;;;;;6139775;28;82023;-58
2024/02/12 01:00:11;;;;;;;9.30;6.20;;;23.70;56.60;;;;;;6142134;28;80783;-58
2024/02/12 01:03:14;;;;;;;11.07;6.82;;;23.70;56.40;;;;;;6148125;28;80782;-56
2024/02/12 01:06:16;;;;;;;9.73;6.60;;;23.70;56.50;;;;;;6143642;28;80203;-58
2024/02/12 01:09:17;;;;;;;11.45;6.80;;;23.70;56.40;;;;;;6151550;28;80860;-58
2024/02/12 01:12:17;;;;;;;11.60;6.97;;;23.70;56.30;;;;;;6154950;28;80824;-51
2024/02/12 01:15:18;;;;;;;11.63;7.35;;;23.70;56.40;;;;;;6155421;28;81354;-52
2024/02/12 01:18:19;;;;;;;9.77;6.78;;;23.70;56.40;;;;;;6178535;28;84819;-54
2024/02/12 01:21:19;;;;;;;9.52;6.57;;;23.70;56.40;;;;;;6154327;28;80978;-51
2024/02/12 01:24:20;;;;;;;9.32;6.05;;;23.70;56.20;;;;;;6156912;28;81388;-52
2024/02/12 01:27:20;;;;;;;9.70;6.63;;;23.70;56.30;;;;;;6154677;28;81152;-53
2024/02/12 01:30:22;;;;;;;9.10;5.90;;;23.60;56.20;;;;;;6155689;28;82760;-54
2024/02/12 01:33:22;;;;;;;9.48;6.05;;;23.70;56.20;;;;;;6155342;28;82865;-54
2024/02/12 01:36:23;;;;;;;9.75;6.50;;;23.70;56.10;;;;;;6154858;28;80329;-52
2024/02/12 01:39:23;;;;;;;10.02;6.15;;;23.60;55.80;;;;;;6154350;28;81246;-54
2024/02/12 01:42:24;;;;;;;9.85;6.35;;;23.70;55.60;;;;;;6155737;28;81348;-50
2024/02/12 01:45:26;;;;;;;9.23;6.07;;;23.70;55.50;;;;;;6154395;28;81383;-54
2024/02/12 01:48:29;;;;;;;9.02;5.78;;;23.70;55.50;;;;;;6154750;28;80263;-50
2024/02/12 01:51:30;;;;;;;8.02;5.82;;;23.70;55.40;;;;;;6154681;28;81263;-54
2024/02/12 01:54:30;;;;;;;6.78;5.40;;;23.70;55.80;;;;;;6141310;28;80625;-55
2024/02/12 01:57:33;;;;;;;7.07;5.13;;;23.70;55.50;;;;;;6153978;28;80425;-55
2024/02/12 02:00:33;;;;;;;7.72;5.63;;;23.70;55.50;;;;;;6153537;28;81040;-53
2024/02/12 02:03:42;;;;;;;7.93;5.28;;;23.70;55.40;;;;;;6151159;28;81567;-54
2024/02/12 02:06:42;;;;;;;6.60;4.78;;;23.70;55.50;;;;;;6144122;28;80725;-51
2024/02/12 02:09:43;;;;;;;7.85;4.32;;;23.70;55.30;;;;;;6155550;28;80323;-51
2024/02/12 02:12:46;;;;;;;7.28;4.75;;;23.70;55.20;;;;;;6154913;28;80901;-52
2024/02/12 02:15:46;;;;;;;5.82;3.83;;;23.70;55.10;;;;;;6155270;28;81365;-52
2024/02/12 02:18:50;;;;;;;5.85;3.67;;;23.70;55.20;;;;;;6154365;28;80348;-49
2024/02/12 02:21:52;;;;;;;5.10;3.95;;;23.70;55.40;;;;;;6155168;28;80949;-51
2024/02/12 02:24:52;;;;;;;4.28;3.70;;;23.70;55.50;;;;;;6154614;28;80737;-53
2024/02/12 02:27:53;;;;;;;5.68;3.45;;;23.70;55.50;;;;;;6153476;28;80358;-54
2024/02/12 02:30:53;;;;;;;6.32;4.15;;;23.70;55.60;;;;;;6149048;28;80493;-54
2024/02/12 02:33:54;;;;;;;5.03;3.08;;;23.70;55.40;;;;;;6141629;28;82851;-52
2024/02/12 02:36:54;;;;;;;3.72;2.78;;;23.70;55.60;;;;;;6153896;28;80948;-53
2024/02/12 02:39:55;;;;;;;6.70;3.22;;;23.70;55.40;;;;;;6154141;28;81184;-53
2024/02/12 02:42:57;;;;;;;5.47;3.47;;;23.70;55.20;;;;;;6154177;28;80728;-61
2024/02/12 02:45:59;;;;;;;4.03;2.90;;;23.70;55.00;;;;;;6144783;28;80426;-60
2024/02/12 02:49:00;;;;;;;3.67;2.75;;;23.70;55.10;;;;;;6144912;28;82398;-59
2024/02/12 02:52:01;;;;;;;3.53;2.60;;;23.70;55.10;;;;;;6153893;28;81314;-59
2024/02/12 02:55:01;;;;;;;5.32;2.78;;;23.70;55.20;;;;;;6143105;28;80901;-60
2024/02/12 02:58:02;;;;;;;3.45;2.40;;;23.60;54.30;;;;;;6136561;28;80458;-61
2024/02/12 03:01:03;;;;;;;3.60;2.67;;;23.70;54.50;;;;;;6147213;28;81020;-60
2024/02/12 03:04:04;;;;;;;3.40;2.40;;;23.70;54.70;;;;;;6153619;28;80577;-59
2024/02/12 03:07:09;;;;;;;2.92;2.33;;;23.70;54.80;;;;;;6152647;28;81604;-58
2024/02/12 03:10:10;;;;;;;2.97;2.13;;;23.70;54.90;;;;;;6153129;28;80501;-58
2024/02/12 03:13:10;;;;;;;5.93;2.60;;;23.70;54.40;;;;;;6151992;28;81435;-59
2024/02/12 03:16:11;;;;;;;3.10;2.08;;;23.70;54.40;;;;;;6140894;28;80606;-58
2024/02/12 03:19:11;;;;;;;2.88;2.08;;;23.60;54.50;;;;;;6152760;28;81042;-55
2024/02/12 03:22:12;;;;;;;4.95;2.45;;;23.60;54.20;;;;;;6152838;28;80480;-54
2024/02/12 03:25:12;;;;;;;4.43;2.00;;;23.70;54.20;;;;;;6151062;28;80769;-53
2024/02/12 03:28:13;;;;;;;2.92;1.63;;;23.60;53.80;;;;;;6130514;28;81073;-50
2024/02/12 03:31:13;;;;;;;2.25;1.67;;;23.70;54.50;;;;;;6142784;28;82066;-50
2024/02/12 03:34:14;;;;;;;1.98;1.58;;;23.60;54.50;;;;;;6152104;28;80707;-54
2024/02/12 03:37:18;;;;;;;2.10;1.60;;;23.70;54.50;;;;;;6152989;28;80256;-50
2024/02/12 03:40:22;;;;;;;2.72;1.65;;;23.70;54.50;;;;;;6140252;28;80623;-53
2024/02/12 03:43:23;;;;;;;2.10;1.50;;;23.70;54.50;;;;;;6152498;28;80518;-52
2024/02/12 03:46:31;;;;;;;2.47;1.70;;;23.70;54.50;;;;;;6146303;28;82264;-47
2024/02/12 04:02:49;;;;;;;1.27;1.17;;;23.70;53.80;;;;;;6141518;28;86692;-60
2024/02/12 04:05:49;;;;;;;2.08;1.40;;;23.70;54.10;;;;;;6169355;28;80381;-61
2024/02/12 04:08:51;;;;;;;1.38;1.20;;;23.70;54.00;;;;;;6156359;28;81134;-59
2024/02/12 04:11:52;;;;;;;1.88;1.40;;;23.70;53.90;;;;;;6144890;28;80544;-59
2024/02/12 04:14:53;;;;;;;1.40;1.30;;;23.70;53.40;;;;;;6144601;28;80489;-60
2024/02/12 04:17:54;;;;;;;1.83;1.00;;;23.70;53.40;;;;;;6150494;28;81610;-62
2024/02/12 04:20:54;;;;;;;0.93;0.85;;;23.70;53.40;;;;;;6152535;28;80707;-61
2024/02/12 04:23:55;;;;;;;1.02;0.93;;;23.70;53.50;;;;;;6150612;28;81724;-65
2024/02/12 04:26:55;;;;;;;1.42;1.30;;;23.70;53.00;;;;;;6151162;28;80641;-63
2024/02/12 04:29:57;;;;;;;0.80;0.80;;;23.70;52.80;;;;;;6151275;28;80841;-65
2024/02/12 04:33:02;;;;;;;2.78;1.02;;;23.70;52.80;;;;;;6151940;28;80478;-60
2024/02/12 04:36:03;;;;;;;1.13;0.90;;;23.70;52.40;;;;;;6154845;28;80718;-59
2024/02/12 04:39:04;;;;;;;0.60;0.60;;;23.70;52.30;;;;;;6150347;28;80453;-59
2024/02/12 04:42:04;;;;;;;1.10;1.00;;;23.70;52.40;;;;;;6145720;28;80621;-58
2024/02/12 04:45:05;;;;;;;1.08;0.90;;;23.70;52.30;;;;;;6145620;28;85041;-56
2024/02/12 04:48:06;;;;;;;0.93;0.80;;;23.70;52.20;;;;;;6146441;28;80623;-53
2024/02/12 04:51:06;;;;;;;1.27;1.00;;;23.80;52.30;;;;;;6154553;28;80600;-59
2024/02/12 04:54:07;;;;;;;1.35;1.10;;;23.80;52.20;;;;;;6156388;28;80320;-58
2024/02/12 04:57:08;;;;;;;1.45;1.00;;;23.80;52.20;;;;;;6153973;28;80378;-52
2024/02/12 05:00:12;;;;;;;1.17;0.80;;;23.80;52.20;;;;;;6142124;28;80494;-59
2024/02/12 05:03:13;;;;;;;0.90;0.70;;;23.80;52.00;;;;;;6155366;28;81236;-59
2024/02/12 05:06:14;;;;;;;0.90;0.80;;;23.90;52.00;;;;;;6155885;28;81817;-60
2024/02/12 05:09:15;;;;;;;0.80;0.80;;;23.90;52.00;;;;;;6142695;28;80452;-60
2024/02/12 05:12:15;;;;;;;1.05;0.77;;;23.90;51.90;;;;;;6156021;28;80696;-58
2024/02/12 05:15:17;;;;;;;0.75;0.70;;;23.90;51.80;;;;;;6145650;28;80931;-63
2024/02/12 05:24:58;;;;;;;0.98;0.80;;;23.90;51.60;;;;;;6141451;28;80253;-58
2024/02/12 05:28:00;;;;;;;3.40;0.80;;;23.90;51.70;;;;;;6169741;28;82379;-60
2024/02/12 05:31:00;;;;;;;1.10;0.82;;;24.00;52.10;;;;;;6153916;28;80352;-57
2024/02/12 05:34:01;;;;;;;2.88;0.82;;;24.00;52.30;;;;;;6155751;28;80202;-59
2024/02/12 05:37:01;;;;;;;2.53;1.02;;;24.00;52.10;;;;;;6145033;28;80484;-61
2024/02/12 05:40:02;;;;;;;5.47;1.20;;;24.00;52.10;;;;;;6152558;28;80464;-62
2024/02/12 05:43:02;;;;;;;3.85;1.27;;;24.00;52.10;;;;;;6143916;28;81269;-59
2024/02/12 05:46:03;;;;;;;3.78;1.30;;;24.00;52.10;;;;;;6149495;28;81368;-56
2024/02/12 05:49:06;;;;;;;2.95;1.45;;;24.00;52.40;;;;;;6154951;28;80774;-58
2024/02/12 05:52:06;;;;;;;2.10;1.25;;;24.00;52.60;;;;;;6154592;28;81602;-58
2024/02/12 05:55:07;;;;;;;10.07;1.35;;;24.00;52.50;;;;;;6153867;28;81307;-55
2024/02/12 05:58:09;;;;;;;5.50;1.20;;;24.00;52.20;;;;;;6153792;28;80519;-59
2024/02/12 06:01:10;;;;;;;24.42;1.40;;;24.00;52.50;;;;;;6154482;28;81125;-56
2024/02/12 06:04:10;;;;;;;5.47;1.00;;;24.00;52.50;;;;;;6153574;28;80659;-60
2024/02/12 06:07:11;;;;;;;7.20;1.05;;;24.00;52.80;;;;;;6153320;28;80598;-58
2024/02/12 06:10:11;;;;;;;5.97;1.10;;;24.00;52.70;;;;;;6152708;28;80334;-58
2024/02/12 06:13:12;;;;;;;9.18;0.90;;;24.10;52.70;;;;;;6150095;28;81275;-55
2024/02/12 06:16:13;;;;;;;4.97;1.02;;;24.00;52.80;;;;;;6150357;28;80596;-58
2024/02/12 06:19:14;;;;;;;2.38;1.20;;;24.00;52.30;;;;;;6132177;28;82473;-58
2024/02/12 06:22:14;;;;;;;2.17;1.20;;;24.10;52.20;;;;;;6141305;28;81333;-57
2024/02/12 06:25:18;;;;;;;4.22;1.02;;;24.10;51.90;;;;;;6143328;28;85376;-58
2024/02/12 06:28:19;;;;;;;5.10;1.10;;;24.00;51.80;;;;;;6141644;28;82332;-58
2024/02/12 06:31:20;;;;;;;1.38;0.90;;;24.00;51.70;;;;;;6148663;28;81228;-57
2024/02/12 06:34:21;;;;;;;2.35;0.90;;;24.00;51.60;;;;;;6161607;28;80496;-57
2024/02/12 06:37:21;;;;;;;2.20;1.13;;;24.00;51.40;;;;;;6151164;28;80900;-58
2024/02/12 06:40:22;;;;;;;1.65;0.90;;;24.00;51.20;;;;;;6148178;28;80426;-57
2024/02/12 06:43:23;;;;;;;2.63;1.00;;;24.00;51.20;;;;;;6131032;28;80496;-59
2024/02/12 06:46:23;;;;;;;1.30;0.82;;;24.00;51.80;;;;;;6143807;28;83180;-58
2024/02/12 06:49:24;;;;;;;3.13;1.08;;;23.90;51.70;;;;;;6149107;28;81081;-57
2024/02/12 06:52:24;;;;;;;2.63;1.10;;;24.00;51.60;;;;;;6155231;28;81574;-55
2024/02/12 06:55:25;;;;;;;5.28;0.90;;;24.00;51.60;;;;;;6155163;28;80571;-58
2024/02/12 06:58:25;;;;;;;0.82;0.60;;;24.00;52.10;;;;;;6141634;28;81806;-52
2024/02/12 07:01:27;;;;;;;1.98;1.10;;;24.00;51.50;;;;;;6152835;28;80501;-53
2024/02/12 07:04:27;;;;;;;1.65;1.05;;;24.00;51.60;;;;;;6155093;28;83042;-55
2024/02/12 07:07:28;;;;;;;2.35;0.98;;;23.90;51.90;;;;;;6151215;28;81541;-50
2024/02/12 07:10:28;;;;;;;2.15;0.93;;;23.90;51.20;;;;;;6154431;28;81516;-54
2024/02/12 07:13:29;;;;;;;2.15;1.25;;;23.80;50.40;;;;;;6151094;28;81506;-51
2024/02/12 07:16:30;;;;;;;2.75;1.05;;;23.80;50.10;;;;;;6147759;28;82086;-54
2024/02/12 07:19:30;;;;;;;3.85;1.50;;;23.80;49.90;;;;;;6152878;28;80901;-54
2024/02/12 07:22:31;;;;;;;1.77;1.00;;;23.70;50.50;;;;;;6155063;28;80153;-54
2024/02/12 07:25:32;;;;;;;1.70;1.20;;;23.80;49.10;;;;;;6155072;28;80004;-50
2024/02/12 07:28:32;;;;;;;1.88;1.13;;;23.70;49.10;;;;;;6150088;28;81727;-50
2024/02/12 07:31:33;;;;;;;1.52;1.05;;;23.70;49.30;;;;;;6148167;28;80741;-50
2024/02/12 07:34:33;;;;;;;2.22;1.10;;;23.70;49.00;;;;;;6153990;28;81352;-50
2024/02/12 07:37:34;;;;;;;1.95;1.13;;;23.70;48.80;;;;;;6152928;28;80918;-51
2024/02/12 07:40:35;;;;;;;2.00;1.25;;;23.70;48.50;;;;;;6143714;28;81297;-52
2024/02/12 07:43:38;;;;;;;3.22;1.40;;;23.70;48.40;;;;;;6152320;28;81828;-50
2024/02/12 07:46:38;;;;;;;1.65;1.27;;;23.70;48.20;;;;;;6154039;28;80593;-50
2024/02/12 07:49:39;;;;;;;1.77;1.33;;;23.60;48.00;;;;;;6146222;28;80452;-54
2024/02/12 07:52:40;;;;;;;2.67;1.15;;;23.70;48.10;;;;;;6158983;28;81297;-53
2024/02/12 07:55:40;;;;;;;1.70;1.17;;;23.60;47.90;;;;;;6163404;28;80495;-59
2024/02/12 07:58:41;;;;;;;1.10;1.00;;;23.60;47.50;;;;;;6139529;28;80794;-61
2024/02/12 08:01:42;;;;;;;1.83;1.27;;;23.60;47.40;;;;;;6155247;28;81421;-61
2024/02/12 08:04:43;;;;;;;2.17;1.27;;;23.60;47.80;;;;;;6140874;28;83491;-60
2024/02/12 08:07:43;;;;;;;1.38;1.20;;;23.60;47.50;;;;;;6154687;28;80931;-59
2024/02/12 08:10:44;;;;;;;1.67;1.17;;;23.60;47.30;;;;;;6156174;28;80429;-59
2024/02/12 08:13:45;;;;;;;2.47;1.67;;;23.60;47.50;;;;;;6161859;28;81249;-60
2024/02/12 08:16:47;;;;;;;1.50;1.33;;;23.60;47.10;;;;;;6160816;28;80830;-59
2024/02/12 08:19:47;;;;;;;3.25;1.20;;;23.60;47.50;;;;;;6161206;28;80410;-60
2024/02/12 08:22:49;;;;;;;1.73;1.33;;;23.60;46.90;;;;;;6160603;28;83451;-60
2024/02/12 08:25:52;;;;;;;1.70;1.58;;;23.60;46.70;;;;;;6144215;28;81663;-61
2024/02/12 08:28:53;;;;;;;3.35;1.50;;;23.60;46.70;;;;;;6159640;28;80728;-60
2024/02/12 08:31:53;;;;;;;2.47;1.50;;;23.60;46.70;;;;;;6154633;28;80707;-60
2024/02/12 08:34:54;;;;;;;1.75;1.42;;;23.60;46.70;;;;;;6160856;28;81112;-60
2024/02/12 08:37:55;;;;;;;2.85;1.67;;;23.60;46.60;;;;;;6161165;28;83545;-60
2024/02/12 08:40:55;;;;;;;2.08;1.40;;;23.60;46.50;;;;;;6157210;28;84943;-60
2024/02/12 08:43:56;;;;;;;2.55;1.60;;;23.60;46.20;;;;;;6160801;28;80399;-60
2024/02/12 08:46:56;;;;;;;2.60;1.50;;;23.60;46.00;;;;;;6160640;28;80521;-60
2024/02/12 08:49:58;;;;;;;2.17;1.63;;;23.60;45.40;;;;;;6161558;28;80407;-59
2024/02/12 08:52:59;;;;;;;1.95;1.40;;;23.60;45.10;;;;;;6159141;28;80539;-59
2024/02/12 08:55:59;;;;;;;4.35;1.98;;;23.60;45.20;;;;;;6154432;28;80473;-59
2024/02/12 08:59:01;;;;;;;2.33;1.60;;;23.60;45.00;;;;;;6144506;28;80297;-58
2024/02/12 09:02:03;;;;;;;3.55;1.80;;;23.70;44.90;;;;;;6151486;28;81358;-61
2024/02/12 09:05:09;;;;;;;3.28;1.55;;;23.70;44.90;;;;;;6162010;28;80693;-62
2024/02/12 09:08:09;;;;;;;1.97;1.60;;;23.80;45.00;;;;;;6146810;28;80740;-59
2024/02/12 09:11:10;;;;;;;4.03;1.77;;;23.80;44.80;;;;;;6151123;28;81797;-60
2024/02/12 09:14:10;;;;;;;3.60;1.67;;;23.80;45.10;;;;;;6157964;28;80366;-59
2024/02/12 09:17:14;;;;;;;2.70;1.60;;;23.80;45.10;;;;;;6154928;28;80488;-59
2024/02/12 09:20:14;;;;;;;2.90;1.75;;;23.90;45.10;;;;;;6165016;28;80829;-60
2024/02/12 09:23:15;;;;;;;4.15;2.05;;;23.90;45.30;;;;;;6154315;28;81813;-61
2024/02/12 09:26:16;;;;;;;2.88;1.60;;;24.00;45.40;;;;;;6154959;28;80553;-51
2024/02/12 09:29:19;;;;;;;3.15;1.80;;;24.00;45.40;;;;;;6158070;28;80667;-53
2024/02/12 09:32:19;;;;;;;1.92;1.25;;;24.10;45.50;;;;;;6150310;28;82360;-52
2024/02/12 09:35:20;;;;;;;1.58;1.45;;;24.10;45.60;;;;;;6156667;28;80456;-52
2024/02/12 09:38:20;;;;;;;3.17;2.25;;;24.10;45.70;;;;;;6152824;28;83826;-52
2024/02/12 09:41:21;;;;;;;3.95;1.60;;;24.20;46.00;;;;;;6157293;28;80405;-52
2024/02/12 09:44:21;;;;;;;3.47;1.75;;;24.20;45.90;;;;;;6146420;28;82926;-48
2024/02/12 09:47:22;;;;;;;2.25;1.52;;;24.20;46.00;;;;;;6155001;28;80020;-51
2024/02/12 09:50:22;;;;;;;2.15;1.70;;;24.20;46.10;;;;;;6151283;28;81195;-49
2024/02/12 09:53:23;;;;;;;4.28;1.50;;;24.20;46.30;;;;;;6153644;28;80507;-51
2024/02/12 09:56:24;;;;;;;3.15;1.80;;;24.20;46.40;;;;;;6155345;28;85016;-53
2024/02/12 09:59:24;;;;;;;4.85;1.50;;;24.30;46.60;;;;;;6150921;28;80984;-51
2024/02/12 10:02:25;;;;;;;2.80;1.60;;;24.30;46.50;;;;;;6145084;28;80774;-52
2024/02/12 10:05:25;;;;;;;3.88;1.60;;;24.30;46.50;;;;;;6148728;28;81260;-60
2024/02/12 10:08:26;;;;;;;2.03;1.65;;;24.30;46.60;;;;;;6151284;28;80485;-61
2024/02/12 10:11:29;;;;;;;2.50;1.40;;;24.30;46.70;;;;;;6155362;28;80516;-60
2024/02/12 10:14:30;;;;;;;2.97;1.48;;;24.30;46.50;;;;;;6155205;28;80372;-61
2024/02/12 10:17:31;;;;;;;2.28;1.50;;;24.30;46.70;;;;;;6153226;28;81115;-60
2024/02/12 10:20:32;;;;;;;2.75;1.52;;;24.30;46.70;;;;;;6147412;28;83883;-60
2024/02/12 10:23:32;;;;;;;4.60;1.58;;;24.30;47.00;;;;;;6155738;28;82308;-58
2024/02/12 10:26:33;;;;;;;1.77;1.20;;;24.40;47.00;;;;;;6150615;28;80348;-62
2024/02/12 10:29:35;;;;;;;2.13;1.52;;;24.30;47.00;;;;;;6143768;28;80647;-59
2024/02/12 10:32:37;;;;;;;2.80;1.50;;;24.30;47.20;;;;;;6154708;28;81114;-60
2024/02/12 10:35:43;;;;;;;2.85;1.45;;;24.40;47.50;;;;;;6152960;28;80934;-61
2024/02/12 10:38:44;;;;;;;;;;;24.40;47.50;;;;;;6156158;28;80425;-61
2024/02/12 10:41:44;;;;;;;3.63;1.60;;;24.40;47.50;;;;;;6161008;28;80785;-52
2024/02/12 10:44:49;;;;;;;7.55;1.70;;;24.40;47.50;;;;;;6154371;28;82928;-52
2024/02/12 10:47:50;;;;;;;5.10;1.95;;;24.40;47.60;;;;;;6153480;28;85229;-51
2024/02/12 10:50:53;;;;;;;2.60;1.42;;;24.40;47.60;;;;;;6149140;28;81681;-48
2024/02/12 10:53:53;;;;;;;2.95;1.75;;;24.40;47.80;;;;;;6148154;28;80386;-51
2024/02/12 10:56:54;;;;;;;3.20;1.40;;;24.30;47.60;;;;;;6155445;28;82282;-50
2024/02/12 10:59:55;;;;;;;4.63;1.60;;;24.30;47.70;;;;;;6141756;28;80958;-59
2024/02/12 11:02:55;;;;;;;2.90;1.92;;;24.30;47.70;;;;;;6153704;28;80331;-61
2024/02/12 11:05:56;;;;;;;3.25;1.70;;;24.30;47.90;;;;;;6152632;28;81487;-60
2024/02/12 11:08:56;;;;;;;2.75;1.30;;;24.30;47.70;;;;;;6154254;28;81709;-58
2024/02/12 11:11:58;;;;;;;3.72;1.13;;;24.30;48.10;;;;;;6153148;28;80621;-57
2024/02/12 11:14:58;;;;;;;2.67;1.40;;;24.20;48.20;;;;;;6137640;28;81023;-60
2024/02/12 11:17:59;;;;;;;1.50;1.40;;;24.30;48.10;;;;;;6154398;28;80702;-57
2024/02/12 11:21:01;;;;;;;1.60;1.25;;;24.30;48.40;;;;;;6143362;28;80084;-53
2024/02/12 11:24:01;;;;;;;2.58;1.42;;;24.20;48.00;;;;;;6133661;28;82853;-53
2024/02/12 11:27:02;;;;;;;2.42;1.60;;;24.30;48.30;;;;;;6152336;28;80313;-52
2024/02/12 11:30:02;;;;;;;6.03;1.27;;;24.20;48.00;;;;;;6154164;28;80549;-52
2024/02/12 11:33:03;;;;;;;4.50;1.45;;;24.20;47.70;;;;;;6152239;28;81408;-53
2024/02/12 11:36:05;;;;;;;2.30;1.60;;;24.20;47.70;;;;;;6150199;28;81072;-53
2024/02/12 11:39:07;;;;;;;2.67;1.55;;;24.20;47.70;;;;;;6151350;28;80930;-53
2024/02/12 11:42:09;;;;;;;2.75;1.52;;;24.10;47.80;;;;;;6151856;28;80653;-54
2024/02/12 11:45:10;;;;;;;2.05;1.52;;;24.20;48.00;;;;;;6152040;28;80142;-54
2024/02/12 11:48:10;;;;;;;1.48;1.25;;;24.10;48.00;;;;;;6150886;28;80836;-57
2024/02/12 11:51:11;;;;;;;4.15;1.50;;;24.10;47.70;;;;;;6152941;28;81165;-53
2024/02/12 11:54:13;;;;;;;2.50;1.38;;;24.10;47.40;;;;;;6152425;28;81150;-58
2024/02/12 11:57:14;;;;;;;3.83;1.48;;;24.10;47.40;;;;;;6161188;28;86898;-55
2024/02/12 12:00:16;;;;;;;2.45;1.08;;;24.10;47.30;;;;;;6153159;28;81430;-58
2024/02/12 12:03:17;;;;;;;2.53;1.45;;;24.10;47.30;;;;;;6143727;28;80360;-49
2024/02/12 12:06:18;;;;;;;2.65;1.33;;;24.10;47.40;;;;;;6137819;28;80109;-56
2024/02/12 12:09:22;;;;;;;1.95;1.40;;;24.10;47.30;;;;;;6170500;28;81328;-57
2024/02/12 12:12:23;;;;;;;2.75;1.38;;;24.10;47.40;;;;;;6137782;28;84999;-51
2024/02/12 12:15:23;;;;;;;5.20;1.23;;;24.10;47.20;;;;;;6170325;28;80488;-60
2024/02/12 12:18:24;;;;;;;4.20;1.60;;;24.10;47.70;;;;;;6149787;28;80337;-58
2024/02/12 12:21:25;;;;;;;4.10;1.70;;;24.10;47.60;;;;;;6146381;28;80506;-58
2024/02/12 12:24:27;;;;;;;3.22;1.50;;;24.10;47.40;;;;;;6150582;28;81046;-58
2024/02/12 12:27:28;;;;;;;3.95;1.35;;;24.10;47.20;;;;;;6138166;28;81020;-58
2024/02/12 12:30:29;;;;;;;2.63;1.73;;;24.10;47.20;;;;;;6150355;28;81093;-60
2024/02/12 12:33:29;;;;;;;4.15;1.60;;;24.10;47.20;;;;;;6149821;28;80723;-61
2024/02/12 12:36:31;;;;;;;2.40;1.30;;;24.00;47.10;;;;;;6150984;28;80418;-59
2024/02/12 12:39:32;;;;;;;4.78;1.42;;;24.10;47.20;;;;;;6151331;28;80417;-59
2024/02/12 12:42:32;;;;;;;2.97;1.50;;;24.00;47.10;;;;;;6150193;28;80681;-59
2024/02/12 12:45:34;;;;;;;2.45;1.40;;;24.00;47.20;;;;;;6150480;28;80907;-59
2024/02/12 12:48:35;;;;;;;2.63;1.40;;;24.00;47.10;;;;;;6152162;28;81417;-51
2024/02/12 12:51:37;;;;;;;3.53;1.60;;;24.00;47.20;;;;;;6149659;28;80978;-51
2024/02/12 12:54:37;;;;;;;1.98;1.40;;;24.00;47.30;;;;;;6152374;28;81436;-55
2024/02/12 12:57:38;;;;;;;3.85;1.73;;;24.00;47.30;;;;;;6153747;28;81960;-53
2024/02/12 13:00:40;;;;;;;2.80;1.42;;;24.00;47.20;;;;;;6154694;28;83410;-53
2024/02/12 13:03:41;;;;;;;2.80;1.40;;;24.00;47.80;;;;;;6153291;28;80453;-53
2024/02/12 13:06:42;;;;;;;2.92;1.55;;;24.00;47.80;;;;;;6147905;28;80304;-59
2024/02/12 13:09:43;;;;;;;3.00;1.67;;;24.00;47.90;;;;;;6149102;28;80908;-59
2024/02/12 13:12:45;;;;;;;3.08;1.70;;;24.00;47.70;;;;;;6153515;28;80571;-60
2024/02/12 13:15:45;;;;;;;2.85;1.63;;;23.90;47.70;;;;;;6154719;28;81079;-58
2024/02/12 13:18:46;;;;;;;11.32;2.35;;;23.90;47.80;;;;;;6151660;28;80698;-59
2024/02/12 13:21:47;;;;;;;4.47;1.92;;;23.80;47.60;;;;;;6139331;28;80554;-58
2024/02/12 13:24:47;;;;;;;2.00;1.50;;;23.80;47.60;;;;;;6150829;28;80485;-59
2024/02/12 13:27:48;;;;;;;3.70;1.75;;;23.80;47.60;;;;;;6152948;28;80429;-59
2024/02/12 13:30:49;;;;;;;3.55;1.77;;;23.80;48.00;;;;;;6149463;28;83005;-60
2024/02/12 13:33:53;;;;;;;3.08;1.63;;;23.80;48.50;;;;;;6151416;28;80745;-61
2024/02/12 13:36:54;;;;;;;3.03;1.50;;;23.80;48.50;;;;;;6154141;28;82603;-61
2024/02/12 13:39:54;;;;;;;3.40;1.88;;;23.80;48.10;;;;;;6156141;28;80791;-61
2024/02/12 13:42:55;;;;;;;3.83;1.42;;;23.80;48.40;;;;;;6155050;28;80566;-60
2024/02/12 13:45:56;;;;;;;6.45;2.20;;;23.80;48.10;;;;;;6154648;28;82336;-60
2024/02/12 13:48:56;;;;;;;7.20;1.58;;;23.80;48.40;;;;;;6154895;28;81117;-60
2024/02/12 13:51:57;;;;;;;2.78;1.70;;;23.80;48.10;;;;;;6151592;28;81117;-62
2024/02/12 13:54:58;;;;;;;4.70;2.05;;;23.80;48.40;;;;;;6153031;28;80414;-60
2024/02/12 13:57:58;;;;;;;3.88;2.08;;;23.80;48.20;;;;;;6153468;28;81356;-61
2024/02/12 14:01:00;;;;;;;4.78;1.88;;;23.90;48.30;;;;;;6152944;28;81234;-61
2024/02/12 14:04:01;;;;;;;5.75;1.80;;;23.90;48.20;;;;;;6141562;28;80298;-61
2024/02/12 14:07:02;;;;;;;9.88;2.25;;;23.90;48.10;;;;;;6152589;28;80448;-63
2024/02/12 14:10:02;;;;;;;4.63;2.08;;;23.90;48.30;;;;;;6154474;28;81197;-61
2024/02/12 14:13:03;;;;;;;3.85;2.05;;;23.90;48.40;;;;;;6154057;28;80567;-60
2024/02/12 14:16:05;;;;;;;3.00;1.90;;;23.90;48.20;;;;;;6154030;28;80302;-60
2024/02/12 14:19:05;;;;;;;6.15;2.13;;;23.90;48.10;;;;;;6152183;28;80459;-60
2024/02/12 14:22:07;;;;;;;4.80;2.03;;;23.80;47.90;;;;;;6153633;28;80465;-53
2024/02/12 14:25:10;;;;;;;4.80;1.85;;;23.90;48.20;;;;;;6152979;28;80523;-54
2024/02/12 14:28:11;;;;;;;2.63;1.80;;;23.90;48.60;;;;;;6153955;28;80156;-56
2024/02/12 14:31:11;;;;;;;3.85;1.83;;;23.90;48.20;;;;;;6144276;28;83054;-53
2024/02/12 14:34:12;;;;;;;4.95;1.90;;;24.00;48.40;;;;;;6161209;28;80216;-51
2024/02/12 14:37:14;;;;;;;6.00;2.08;;;23.90;48.90;;;;;;6170394;28;80694;-55
2024/02/12 14:40:14;;;;;;;4.43;2.08;;;23.90;48.90;;;;;;6148908;28;81798;-55
2024/02/12 14:43:15;;;;;;;5.70;2.22;;;23.90;48.80;;;;;;6149514;28;82194;-53
2024/02/12 14:46:16;;;;;;;3.42;1.95;;;24.00;48.80;;;;;;6151441;28;81978;-55
2024/02/12 14:49:18;;;;;;;4.80;2.17;;;24.00;48.80;;;;;;6150612;28;83850;-50
2024/02/12 14:52:19;;;;;;;5.82;2.03;;;24.00;48.70;;;;;;6150578;28;81461;-51
2024/02/12 14:55:19;;;;;;;7.20;1.90;;;24.00;48.70;;;;;;6144274;28;81568;-55
2024/02/12 14:58:20;;;;;;;3.88;2.08;;;24.00;48.80;;;;;;6146209;28;80675;-54
2024/02/12 15:01:25;;;;;;;5.95;1.85;;;24.00;48.90;;;;;;6133069;28;80890;-56
2024/02/12 15:04:25;;;;;;;4.13;1.97;;;24.00;49.00;;;;;;6152503;28;80480;-56
2024/02/12 15:07:26;;;;;;;3.40;2.00;;;24.00;49.20;;;;;;6149387;28;80685;-53
2024/02/12 15:10:27;;;;;;;3.63;1.83;;;24.00;49.20;;;;;;6149632;28;85269;-54
2024/02/12 15:13:30;;;;;;;6.32;2.20;;;24.00;49.40;;;;;;6152713;28;81704;-57
2024/02/12 15:16:32;;;;;;;3.33;1.77;;;24.00;49.30;;;;;;6151247;28;80405;-52
2024/02/12 15:19:33;;;;;;;4.22;1.55;;;24.00;49.40;;;;;;6152669;28;81579;-52
2024/02/12 15:22:35;;;;;;;4.40;1.92;;;24.00;49.40;;;;;;6153871;28;80476;-54
2024/02/12 15:25:35;;;;;;;2.55;1.73;;;24.00;49.30;;;;;;6153804;28;80865;-53
2024/02/12 15:28:36;;;;;;;2.58;1.70;;;24.00;49.40;;;;;;6149554;28;80780;-54
2024/02/12 15:31:36;;;;;;;3.10;2.03;;;24.00;49.40;;;;;;6143347;28;80960;-55
2024/02/12 15:34:37;;;;;;;2.58;1.90;;;24.10;49.70;;;;;;6152698;28;80334;-55
2024/02/12 15:37:37;;;;;;;5.15;1.75;;;24.10;49.90;;;;;;6152165;28;80958;-55
2024/02/12 15:40:38;;;;;;;2.67;1.90;;;24.10;49.90;;;;;;6151835;28;82056;-55
2024/02/12 15:43:39;;;;;;;3.22;2.08;;;24.10;50.00;;;;;;6151491;28;83014;-55
2024/02/12 15:46:39;;;;;;;3.17;1.90;;;24.10;50.10;;;;;;6150729;28;81688;-54
2024/02/12 15:49:40;;;;;;;4.63;1.80;;;24.10;50.10;;;;;;6155760;28;80245;-57
2024/02/12 15:52:42;;;;;;;4.60;1.80;;;24.10;50.30;;;;;;6152605;28;82124;-56
2024/02/12 15:55:42;;;;;;;7.47;2.13;;;24.10;50.50;;;;;;6134771;28;80572;-49
2024/02/12 15:58:43;;;;;;;3.45;2.08;;;24.10;50.50;;;;;;6148714;28;80361;-51
2024/02/12 16:01:45;;;;;;;5.75;2.55;;;24.10;50.40;;;;;;6139798;28;82553;-53